sensor_id;sensor_type;location;lat;lon;timestamp;pressure;altitude;pressure_sealevel;temperature;humidity
77517;BME280;68414;53.946;27.634;2023-12-28T00:00:15;99137.984375;;;3.460000;55.155273
77517;BME280;68414;53.946;27.634;2023-12-28T00:01:15;99137.453125;;;3.490000;54.873047
77517;BME280;68414;53.946;27.634;2023-12-28T00:02:15;99135.328125;;;3.460000;54.551758
77517;BME280;68414;53.946;27.634;2023-12-28T00:03:15;99145.421875;;;3.490000;54.401367
77517;BME280;68414;53.946;27.634;2023-12-28T00:04:16;99142.492188;;;3.460000;54.462891
77517;BME280;68414;53.946;27.634;2023-12-28T00:05:15;99141.164062;;;3.480000;54.400391
77517;BME280;68414;53.946;27.634;2023-12-28T00:06:16;99141.937500;;;3.440000;54.043945
77517;BME280;68414;53.946;27.634;2023-12-28T00:07:15;99140.640625;;;3.460000;53.916016
77517;BME280;68414;53.946;27.634;2023-12-28T00:08:15;99138.750000;;;3.470000;54.507812
77517;BME280;68414;53.946;27.634;2023-12-28T00:09:15;99139.039062;;;3.450000;54.429688
77517;BME280;68414;53.946;27.634;2023-12-28T00:10:15;99128.937500;;;3.470000;54.684570
77517;BME280;68414;53.946;27.634;2023-12-28T00:11:15;99134.218750;;;3.420000;54.064453
77517;BME280;68414;53.946;27.634;2023-12-28T00:12:15;99139.781250;;;3.410000;53.832031
77517;BME280;68414;53.946;27.634;2023-12-28T00:13:15;99140.585938;;;3.410000;54.775391
77517;BME280;68414;53.946;27.634;2023-12-28T00:14:15;99140.421875;;;3.260000;53.757812
77517;BME280;68414;53.946;27.634;2023-12-28T00:15:15;99136.562500;;;3.120000;54.255859
77517;BME280;68414;53.946;27.634;2023-12-28T00:16:15;99147.250000;;;2.950000;54.947266
77517;BME280;68414;53.946;27.634;2023-12-28T00:17:15;99156.078125;;;3.000000;55.687500
77517;BME280;68414;53.946;27.634;2023-12-28T00:18:15;99162.921875;;;2.960000;55.375000
77517;BME280;68414;53.946;27.634;2023-12-28T00:19:15;99166.375000;;;2.970000;56.197266
77517;BME280;68414;53.946;27.634;2023-12-28T00:20:15;99160.265625;;;2.960000;55.189453
77517;BME280;68414;53.946;27.634;2023-12-28T00:21:15;99162.000000;;;3.080000;55.806641
77517;BME280;68414;53.946;27.634;2023-12-28T00:22:15;99162.000000;;;3.080000;56.310547
77517;BME280;68414;53.946;27.634;2023-12-28T00:23:15;99163.640625;;;3.140000;55.649414
77517;BME280;68414;53.946;27.634;2023-12-28T00:24:15;99168.109375;;;3.080000;55.291992
77517;BME280;68414;53.946;27.634;2023-12-28T00:25:15;99173.359375;;;3.030000;55.307617
77517;BME280;68414;53.946;27.634;2023-12-28T00:26:15;99166.203125;;;3.030000;57.114258
77517;BME280;68414;53.946;27.634;2023-12-28T00:27:15;99173.109375;;;3.050000;56.360352
77517;BME280;68414;53.946;27.634;2023-12-28T00:28:15;99173.210938;;;3.150000;56.811523
77517;BME280;68414;53.946;27.634;2023-12-28T00:29:15;99175.375000;;;3.180000;56.411133
77517;BME280;68414;53.946;27.634;2023-12-28T00:30:15;99175.250000;;;3.290000;56.777344
77517;BME280;68414;53.946;27.634;2023-12-28T00:31:15;99178.203125;;;3.330000;55.883789
77517;BME280;68414;53.946;27.634;2023-12-28T00:32:15;99183.078125;;;3.410000;56.244141
77517;BME280;68414;53.946;27.634;2023-12-28T00:33:16;99184.468750;;;3.490000;56.407227
77517;BME280;68414;53.946;27.634;2023-12-28T00:34:15;99178.820312;;;3.400000;56.298828
77517;BME280;68414;53.946;27.634;2023-12-28T00:35:15;99191.609375;;;3.430000;56.378906
77517;BME280;68414;53.946;27.634;2023-12-28T00:36:15;99186.875000;;;3.500000;56.761719
77517;BME280;68414;53.946;27.634;2023-12-28T00:37:15;99188.476562;;;3.510000;56.520508
77517;BME280;68414;53.946;27.634;2023-12-28T00:38:15;99194.078125;;;3.280000;56.928711
77517;BME280;68414;53.946;27.634;2023-12-28T00:39:15;99193.710938;;;3.190000;57.770508
77517;BME280;68414;53.946;27.634;2023-12-28T00:40:15;99195.742188;;;3.120000;58.254883
77517;BME280;68414;53.946;27.634;2023-12-28T00:41:15;99191.609375;;;3.210000;58.353516
77517;BME280;68414;53.946;27.634;2023-12-28T00:42:15;99188.703125;;;3.230000;58.882812
77517;BME280;68414;53.946;27.634;2023-12-28T00:43:15;99188.281250;;;3.310000;58.607422
77517;BME280;68414;53.946;27.634;2023-12-28T00:44:15;99194.265625;;;3.210000;58.648438
77517;BME280;68414;53.946;27.634;2023-12-28T00:45:15;99183.828125;;;3.150000;59.854492
77517;BME280;68414;53.946;27.634;2023-12-28T00:46:15;99192.171875;;;3.230000;59.780273
77517;BME280;68414;53.946;27.634;2023-12-28T00:47:15;99198.031250;;;3.250000;59.836914
77517;BME280;68414;53.946;27.634;2023-12-28T00:48:15;99205.625000;;;3.170000;59.913086
77517;BME280;68414;53.946;27.634;2023-12-28T00:49:15;99205.195312;;;3.250000;60.154297
77517;BME280;68414;53.946;27.634;2023-12-28T00:50:15;99207.851562;;;3.250000;60.296875
77517;BME280;68414;53.946;27.634;2023-12-28T00:51:15;99202.609375;;;3.300000;60.182617
77517;BME280;68414;53.946;27.634;2023-12-28T00:52:15;99206.000000;;;3.250000;59.695312
77517;BME280;68414;53.946;27.634;2023-12-28T00:53:15;99208.343750;;;3.220000;60.083984
77517;BME280;68414;53.946;27.634;2023-12-28T00:54:15;99213.242188;;;3.080000;60.053711
77517;BME280;68414;53.946;27.634;2023-12-28T00:55:15;99202.375000;;;3.100000;60.187500
77517;BME280;68414;53.946;27.634;2023-12-28T00:56:15;99202.476562;;;3.200000;60.114258
77517;BME280;68414;53.946;27.634;2023-12-28T00:57:15;99197.914062;;;2.930000;59.945312
77517;BME280;68414;53.946;27.634;2023-12-28T00:58:15;99200.015625;;;2.910000;59.482422
77517;BME280;68414;53.946;27.634;2023-12-28T00:59:15;99195.187500;;;2.880000;58.505859
77517;BME280;68414;53.946;27.634;2023-12-28T01:00:15;99197.703125;;;2.780000;57.758789
77517;BME280;68414;53.946;27.634;2023-12-28T01:01:15;99193.812500;;;2.640000;57.914062
77517;BME280;68414;53.946;27.634;2023-12-28T01:02:15;99208.929688;;;2.630000;58.658203
77517;BME280;68414;53.946;27.634;2023-12-28T01:03:15;99210.367188;;;2.710000;58.809570
77517;BME280;68414;53.946;27.634;2023-12-28T01:04:15;99205.171875;;;2.810000;59.064453
77517;BME280;68414;53.946;27.634;2023-12-28T01:05:15;99200.562500;;;2.930000;58.644531
77517;BME280;68414;53.946;27.634;2023-12-28T01:06:15;99208.671875;;;3.030000;58.219727
77517;BME280;68414;53.946;27.634;2023-12-28T01:07:15;99203.984375;;;3.110000;57.978516
77517;BME280;68414;53.946;27.634;2023-12-28T01:08:16;99199.757812;;;3.150000;57.359375
77517;BME280;68414;53.946;27.634;2023-12-28T01:09:15;99196.265625;;;3.090000;57.198242
77517;BME280;68414;53.946;27.634;2023-12-28T01:10:15;99198.671875;;;3.110000;57.781250
77517;BME280;68414;53.946;27.634;2023-12-28T01:11:15;99210.765625;;;3.010000;57.593750
77517;BME280;68414;53.946;27.634;2023-12-28T01:12:15;99208.359375;;;3.000000;57.514648
77517;BME280;68414;53.946;27.634;2023-12-28T01:13:15;99205.453125;;;3.010000;58.228516
77517;BME280;68414;53.946;27.634;2023-12-28T01:14:15;99200.460938;;;3.050000;58.441406
77517;BME280;68414;53.946;27.634;2023-12-28T01:15:15;99211.742188;;;2.950000;58.691406
77517;BME280;68414;53.946;27.634;2023-12-28T01:16:15;99214.953125;;;2.970000;58.322266
77517;BME280;68414;53.946;27.634;2023-12-28T01:17:15;99210.765625;;;3.010000;58.316406
77517;BME280;68414;53.946;27.634;2023-12-28T01:18:15;99210.765625;;;3.010000;58.163086
77517;BME280;68414;53.946;27.634;2023-12-28T01:19:15;99210.515625;;;3.030000;57.541992
77517;BME280;68414;53.946;27.634;2023-12-28T01:20:15;99206.015625;;;3.030000;58.658203
77517;BME280;68414;53.946;27.634;2023-12-28T01:21:15;99208.914062;;;3.020000;58.917969
77517;BME280;68414;53.946;27.634;2023-12-28T01:22:15;99212.546875;;;2.960000;58.539062
77517;BME280;68414;53.946;27.634;2023-12-28T01:23:15;99216.281250;;;2.780000;59.005859
77517;BME280;68414;53.946;27.634;2023-12-28T01:24:15;99210.484375;;;2.810000;59.731445
77517;BME280;68414;53.946;27.634;2023-12-28T01:25:15;99206.296875;;;2.850000;59.759766
77517;BME280;68414;53.946;27.634;2023-12-28T01:26:15;99208.460938;;;2.880000;60.222656
77517;BME280;68414;53.946;27.634;2023-12-28T01:27:15;99210.000000;;;2.840000;59.703125
77517;BME280;68414;53.946;27.634;2023-12-28T01:28:15;99208.875000;;;2.800000;59.348633
77517;BME280;68414;53.946;27.634;2023-12-28T01:29:15;99215.796875;;;2.810000;59.599609
77517;BME280;68414;53.946;27.634;2023-12-28T01:30:15;99215.375000;;;2.890000;60.299805
77517;BME280;68414;53.946;27.634;2023-12-28T01:31:15;99211.921875;;;2.890000;59.764648
77517;BME280;68414;53.946;27.634;2023-12-28T01:32:15;99212.375000;;;3.020000;59.969727
77517;BME280;68414;53.946;27.634;2023-12-28T01:33:15;99210.687500;;;3.180000;59.487305
77517;BME280;68414;53.946;27.634;2023-12-28T01:34:15;99210.015625;;;3.280000;58.954102
77517;BME280;68414;53.946;27.634;2023-12-28T01:35:15;99210.140625;;;3.380000;58.409180
77517;BME280;68414;53.946;27.634;2023-12-28T01:37:15;99207.421875;;;3.330000;58.020508
77517;BME280;68414;53.946;27.634;2023-12-28T01:38:15;99206.062500;;;3.300000;58.246094
77517;BME280;68414;53.946;27.634;2023-12-28T01:39:15;99207.421875;;;3.330000;58.052734
77517;BME280;68414;53.946;27.634;2023-12-28T01:40:15;99207.484375;;;3.380000;58.125000
77517;BME280;68414;53.946;27.634;2023-12-28T01:41:15;99207.421875;;;3.330000;57.702148
77517;BME280;68414;53.946;27.634;2023-12-28T01:42:15;99208.281250;;;3.170000;57.680664
77517;BME280;68414;53.946;27.634;2023-12-28T01:43:15;99215.437500;;;3.160000;57.789062
77517;BME280;68414;53.946;27.634;2023-12-28T01:44:15;99211.953125;;;3.110000;57.661133
77517;BME280;68414;53.946;27.634;2023-12-28T01:45:15;99212.195312;;;3.090000;58.151367
77517;BME280;68414;53.946;27.634;2023-12-28T01:46:16;99213.484375;;;3.070000;57.960938
77517;BME280;68414;53.946;27.634;2023-12-28T01:47:15;99215.445312;;;2.940000;57.365234
77517;BME280;68414;53.946;27.634;2023-12-28T01:48:15;99223.335938;;;2.890000;57.948242
77517;BME280;68414;53.946;27.634;2023-12-28T01:49:15;99228.890625;;;2.880000;58.407227
77517;BME280;68414;53.946;27.634;2023-12-28T01:50:15;99223.335938;;;2.890000;58.473633
77517;BME280;68414;53.946;27.634;2023-12-28T01:51:15;99232.171875;;;2.950000;58.395508
77517;BME280;68414;53.946;27.634;2023-12-28T01:52:15;99225.429688;;;2.870000;58.602539
77517;BME280;68414;53.946;27.634;2023-12-28T01:53:15;99227.765625;;;2.840000;58.444336
77517;BME280;68414;53.946;27.634;2023-12-28T01:54:15;99224.671875;;;2.700000;58.864258
77517;BME280;68414;53.946;27.634;2023-12-28T01:55:15;99219.539062;;;2.630000;59.226562
77517;BME280;68414;53.946;27.634;2023-12-28T01:56:15;99223.953125;;;2.750000;59.634766
77517;BME280;68414;53.946;27.634;2023-12-28T01:57:15;99219.632812;;;2.900000;59.821289
77517;BME280;68414;53.946;27.634;2023-12-28T01:58:15;99225.429688;;;2.870000;59.696289
77517;BME280;68414;53.946;27.634;2023-12-28T01:59:15;99214.500000;;;2.840000;59.264648
77517;BME280;68414;53.946;27.634;2023-12-28T02:00:15;99223.335938;;;2.890000;59.272461
77517;BME280;68414;53.946;27.634;2023-12-28T02:01:15;99222.140625;;;2.800000;58.736328
77517;BME280;68414;53.946;27.634;2023-12-28T02:02:15;99215.304688;;;2.840000;59.364258
77517;BME280;68414;53.946;27.634;2023-12-28T02:03:15;99227.164062;;;2.770000;58.948242
77517;BME280;68414;53.946;27.634;2023-12-28T02:04:15;99228.570312;;;2.840000;59.320312
77517;BME280;68414;53.946;27.634;2023-12-28T02:05:15;99225.750000;;;2.910000;59.384766
77517;BME280;68414;53.946;27.634;2023-12-28T02:06:15;99222.531250;;;2.890000;59.119141
77517;BME280;68414;53.946;27.634;2023-12-28T02:07:15;99229.031250;;;2.980000;58.989258
77517;BME280;68414;53.946;27.634;2023-12-28T02:08:15;99220.125000;;;2.870000;58.143555
77517;BME280;68414;53.946;27.634;2023-12-28T02:09:15;99231.054688;;;2.910000;58.083008
77517;BME280;68414;53.946;27.634;2023-12-28T02:10:15;99220.750000;;;2.940000;57.627930
77517;BME280;68414;53.946;27.634;2023-12-28T02:11:15;99226.687500;;;3.010000;58.261719
77517;BME280;68414;53.946;27.634;2023-12-28T02:12:15;99221.875000;;;2.980000;57.424805
77517;BME280;68414;53.946;27.634;2023-12-28T02:13:15;99221.875000;;;2.980000;56.735352
77517;BME280;68414;53.946;27.634;2023-12-28T02:14:15;99217.187500;;;3.060000;56.571289
77517;BME280;68414;53.946;27.634;2023-12-28T02:15:15;99222.250000;;;3.070000;56.604492
77517;BME280;68414;53.946;27.634;2023-12-28T02:16:17;99219.281250;;;3.030000;57.191406
77517;BME280;68414;53.946;27.634;2023-12-28T02:17:16;99215.445312;;;2.940000;56.959961
77517;BME280;68414;53.946;27.634;2023-12-28T02:18:17;99215.125000;;;2.910000;56.704102
77517;BME280;68414;53.946;27.634;2023-12-28T02:19:25;99218.890625;;;2.730000;56.680664
77517;BME280;68414;53.946;27.634;2023-12-28T02:20:15;99218.890625;;;2.730000;57.250000
77517;BME280;68414;53.946;27.634;2023-12-28T02:21:15;99218.492188;;;2.640000;57.620117
77517;BME280;68414;53.946;27.634;2023-12-28T02:22:15;99221.468750;;;2.680000;57.866211
77517;BME280;68414;53.946;27.634;2023-12-28T02:23:15;99219.539062;;;2.630000;57.619141
77517;BME280;68414;53.946;27.634;2023-12-28T02:24:15;99218.812500;;;2.680000;57.362305
77517;BME280;68414;53.946;27.634;2023-12-28T02:25:15;99222.343750;;;2.740000;57.599609
77517;BME280;68414;53.946;27.634;2023-12-28T02:26:16;99218.093750;;;2.560000;57.325195
77517;BME280;68414;53.946;27.634;2023-12-28T02:27:15;99233.843750;;;2.460000;58.229492
77517;BME280;68414;53.946;27.634;2023-12-28T02:28:15;99226.617188;;;2.580000;58.300781
77517;BME280;68414;53.946;27.634;2023-12-28T02:29:15;99222.187500;;;2.630000;58.001953
77517;BME280;68414;53.946;27.634;2023-12-28T02:30:16;99224.515625;;;2.770000;57.986328
77517;BME280;68414;53.946;27.634;2023-12-28T02:32:15;99227.843750;;;2.890000;58.550781
77517;BME280;68414;53.946;27.634;2023-12-28T02:33:17;99218.031250;;;2.890000;57.817383
77517;BME280;68414;53.946;27.634;2023-12-28T02:34:16;99227.179688;;;2.980000;57.971680
77517;BME280;68414;53.946;27.634;2023-12-28T02:36:15;99232.062500;;;3.070000;57.239258
77517;BME280;68414;53.946;27.634;2023-12-28T02:37:15;99218.656250;;;2.960000;58.221680
77517;BME280;68414;53.946;27.634;2023-12-28T02:38:15;99218.828125;;;2.900000;57.698242
77517;BME280;68414;53.946;27.634;2023-12-28T02:39:15;99217.226562;;;2.890000;56.690430
77517;BME280;68414;53.946;27.634;2023-12-28T02:40:15;99210.000000;;;2.840000;56.837891
77517;BME280;68414;53.946;27.634;2023-12-28T02:41:15;99219.046875;;;2.660000;57.065430
77517;BME280;68414;53.946;27.634;2023-12-28T02:42:15;99219.539062;;;2.630000;57.750000
77517;BME280;68414;53.946;27.634;2023-12-28T02:43:15;99223.070312;;;2.690000;57.560547
77517;BME280;68414;53.946;27.634;2023-12-28T02:44:15;99217.609375;;;2.590000;57.251953
77517;BME280;68414;53.946;27.634;2023-12-28T02:45:15;99223.406250;;;2.560000;57.882812
77517;BME280;68414;53.946;27.634;2023-12-28T02:46:15;99216.968750;;;2.520000;57.942383
77517;BME280;68414;53.946;27.634;2023-12-28T02:47:15;99227.171875;;;2.600000;58.127930
77517;BME280;68414;53.946;27.634;2023-12-28T02:48:15;99229.101562;;;2.640000;57.784180
77517;BME280;68414;53.946;27.634;2023-12-28T02:49:15;99224.039062;;;2.630000;57.531250
77517;BME280;68414;53.946;27.634;2023-12-28T02:50:15;99227.500000;;;2.630000;57.991211
77517;BME280;68414;53.946;27.634;2023-12-28T02:51:15;99224.039062;;;2.630000;57.509766
77517;BME280;68414;53.946;27.634;2023-12-28T02:52:15;99224.523438;;;2.600000;57.789062
77517;BME280;68414;53.946;27.634;2023-12-28T02:53:15;99228.257812;;;2.420000;58.279297
77517;BME280;68414;53.946;27.634;2023-12-28T02:54:15;99226.328125;;;2.380000;58.797852
77517;BME280;68414;53.946;27.634;2023-12-28T02:55:15;99231.148438;;;2.410000;58.987305
77517;BME280;68414;53.946;27.634;2023-12-28T02:56:15;99230.500000;;;2.330000;58.813477
77517;BME280;68414;53.946;27.634;2023-12-28T02:57:15;99229.828125;;;2.430000;58.914062
77517;BME280;68414;53.946;27.634;2023-12-28T02:58:15;99230.640625;;;2.440000;58.378906
77517;BME280;68414;53.946;27.634;2023-12-28T02:59:15;99234.195312;;;2.320000;59.194336
77517;BME280;68414;53.946;27.634;2023-12-28T03:00:15;99240.781250;;;2.300000;58.545898
77517;BME280;68414;53.946;27.634;2023-12-28T03:01:15;99232.109375;;;2.340000;59.022461
77517;BME280;68414;53.946;27.634;2023-12-28T03:02:15;99234.328125;;;2.430000;59.230469
77517;BME280;68414;53.946;27.634;2023-12-28T03:03:15;99238.062500;;;2.420000;59.316406
77517;BME280;68414;53.946;27.634;2023-12-28T03:04:15;99235.453125;;;2.470000;59.212891
77517;BME280;68414;53.946;27.634;2023-12-28T03:05:15;99238.750000;;;2.540000;59.332031
77517;BME280;68414;53.946;27.634;2023-12-28T03:06:15;99234.890625;;;2.610000;59.256836
77517;BME280;68414;53.946;27.634;2023-12-28T03:07:15;99235.781250;;;2.670000;59.384766
77517;BME280;68414;53.946;27.634;2023-12-28T03:08:15;99229.015625;;;2.760000;59.516602
77517;BME280;68414;53.946;27.634;2023-12-28T03:09:15;99237.500000;;;2.780000;59.377930
77517;BME280;68414;53.946;27.634;2023-12-28T03:10:15;99238.984375;;;2.690000;59.069336
77517;BME280;68414;53.946;27.634;2023-12-28T03:11:15;99240.039062;;;2.510000;60.180664
77517;BME280;68414;53.946;27.634;2023-12-28T03:12:15;99243.500000;;;2.520000;60.258789
77517;BME280;68414;53.946;27.634;2023-12-28T03:13:15;99240.437500;;;2.600000;60.379883
77517;BME280;68414;53.946;27.634;2023-12-28T03:14:15;99241.882812;;;2.670000;60.150391
77517;BME280;68414;53.946;27.634;2023-12-28T03:15:15;99241.960938;;;2.730000;60.091797
77517;BME280;68414;53.946;27.634;2023-12-28T03:16:15;99248.632812;;;2.750000;59.963867
77517;BME280;68414;53.946;27.634;2023-12-28T03:17:15;99251.328125;;;2.800000;59.830078
77517;BME280;68414;53.946;27.634;2023-12-28T03:18:15;99246.468750;;;2.720000;59.239258
77517;BME280;68414;53.946;27.634;2023-12-28T03:19:15;99256.031250;;;2.730000;59.600586
77517;BME280;68414;53.946;27.634;2023-12-28T03:20:15;99249.921875;;;2.730000;59.610352
77517;BME280;68414;53.946;27.634;2023-12-28T03:21:15;99247.312500;;;2.780000;59.628906
77517;BME280;68414;53.946;27.634;2023-12-28T03:22:15;99230.664062;;;2.820000;59.416992
77517;BME280;68414;53.946;27.634;2023-12-28T03:23:15;99243.375000;;;2.800000;59.326172
77517;BME280;68414;53.946;27.634;2023-12-28T03:24:15;99238.671875;;;2.650000;59.470703
77517;BME280;68414;53.946;27.634;2023-12-28T03:25:15;99235.937500;;;2.600000;60.206055
77517;BME280;68414;53.946;27.634;2023-12-28T03:26:15;99236.257812;;;2.640000;60.286133
77517;BME280;68414;53.946;27.634;2023-12-28T03:27:15;99232.890625;;;2.520000;60.477539
77517;BME280;68414;53.946;27.634;2023-12-28T03:28:15;99229.750000;;;2.550000;60.373047
77517;BME280;68414;53.946;27.634;2023-12-28T03:29:16;99227.171875;;;2.600000;60.018555
77517;BME280;68414;53.946;27.634;2023-12-28T03:30:15;99235.617188;;;2.570000;59.742188
77517;BME280;68414;53.946;27.634;2023-12-28T03:31:15;99235.890625;;;2.390000;60.633789
77517;BME280;68414;53.946;27.634;2023-12-28T03:32:15;99232.242188;;;2.450000;60.182617
77517;BME280;68414;53.946;27.634;2023-12-28T03:33:15;99228.140625;;;2.540000;59.834961
77517;BME280;68414;53.946;27.634;2023-12-28T03:34:15;99232.242188;;;2.450000;59.887695
77517;BME280;68414;53.946;27.634;2023-12-28T03:35:15;99233.062500;;;2.280000;60.586914
77517;BME280;68414;53.946;27.634;2023-12-28T03:37:15;99236.453125;;;2.410000;60.057617
77517;BME280;68414;53.946;27.634;2023-12-28T03:38:15;99243.031250;;;2.380000;59.967773
77517;BME280;68414;53.946;27.634;2023-12-28T03:39:15;99243.671875;;;2.280000;60.673828
77517;BME280;68414;53.946;27.634;2023-12-28T03:40:15;99246.085938;;;2.300000;60.413086
77517;BME280;68414;53.946;27.634;2023-12-28T03:42:15;99239.390625;;;2.440000;60.084961
77517;BME280;68414;53.946;27.634;2023-12-28T03:43:15;99241.328125;;;2.490000;59.795898
77517;BME280;68414;53.946;27.634;2023-12-28T03:44:15;99241.242188;;;2.440000;59.865234
77517;BME280;68414;53.946;27.634;2023-12-28T03:45:15;99240.437500;;;2.430000;59.667969
77517;BME280;68414;53.946;27.634;2023-12-28T03:46:15;99246.304688;;;2.450000;59.703125
77517;BME280;68414;53.946;27.634;2023-12-28T03:47:15;99239.343750;;;2.390000;59.367188
77517;BME280;68414;53.946;27.634;2023-12-28T03:48:15;99253.468750;;;2.280000;60.181641
77517;BME280;68414;53.946;27.634;2023-12-28T03:50:15;99253.710938;;;2.260000;60.539062
77517;BME280;68414;53.946;27.634;2023-12-28T03:51:15;99268.578125;;;2.270000;60.400391
77517;BME280;68414;53.946;27.634;2023-12-28T03:52:15;99262.234375;;;2.280000;60.291992
77517;BME280;68414;53.946;27.634;2023-12-28T03:53:15;99259.578125;;;2.280000;59.768555
77517;BME280;68414;53.946;27.634;2023-12-28T03:55:15;99274.984375;;;2.150000;60.578125
77517;BME280;68414;53.946;27.634;2023-12-28T03:57:15;99286.234375;;;2.220000;59.877930
77517;BME280;68414;53.946;27.634;2023-12-28T03:58:15;99285.289062;;;2.280000;59.821289
77517;BME280;68414;53.946;27.634;2023-12-28T03:59:15;99282.875000;;;2.260000;59.567383
77517;BME280;68414;53.946;27.634;2023-12-28T04:00:15;99281.265625;;;2.250000;60.079102
77517;BME280;68414;53.946;27.634;2023-12-28T04:01:16;99278.140625;;;2.280000;60.248047
77517;BME280;68414;53.946;27.634;2023-12-28T04:02:15;99269.945312;;;2.300000;60.041992
77517;BME280;68414;53.946;27.634;2023-12-28T04:03:15;99274.117188;;;2.260000;60.266602
77517;BME280;68414;53.946;27.634;2023-12-28T04:04:15;99269.531250;;;2.210000;60.499023
77517;BME280;68414;53.946;27.634;2023-12-28T04:05:15;99270.093750;;;2.230000;60.121094
77517;BME280;68414;53.946;27.634;2023-12-28T04:06:15;99272.265625;;;2.260000;60.386719
77517;BME280;68414;53.946;27.634;2023-12-28T04:07:15;99275.484375;;;2.280000;60.291992
77517;BME280;68414;53.946;27.634;2023-12-28T04:08:15;99271.468750;;;2.260000;60.452148
77517;BME280;68414;53.946;27.634;2023-12-28T04:09:15;99268.015625;;;2.250000;60.156250
77517;BME280;68414;53.946;27.634;2023-12-28T04:10:19;99262.859375;;;2.190000;60.736328
77517;BME280;68414;53.946;27.634;2023-12-28T04:11:15;99272.265625;;;2.260000;60.812500
77517;BME280;68414;53.946;27.634;2023-12-28T04:12:15;99267.531250;;;2.280000;60.816406
77517;BME280;68414;53.946;27.634;2023-12-28T04:13:15;99268.093750;;;2.300000;60.632812
77517;BME280;68414;53.946;27.634;2023-12-28T04:14:15;99273.015625;;;2.390000;60.109375
77517;BME280;68414;53.946;27.634;2023-12-28T04:15:15;99274.671875;;;2.450000;60.073242
77517;BME280;68414;53.946;27.634;2023-12-28T04:16:15;99268.265625;;;2.410000;60.559570
77517;BME280;68414;53.946;27.634;2023-12-28T04:17:15;99259.804688;;;2.440000;60.017578
77517;BME280;68414;53.946;27.634;2023-12-28T04:18:15;99260.687500;;;2.490000;60.178711
77517;BME280;68414;53.946;27.634;2023-12-28T04:19:15;99257.562500;;;2.520000;60.030273
77517;BME280;68414;53.946;27.634;2023-12-28T04:20:15;99261.015625;;;2.530000;59.912109
77517;BME280;68414;53.946;27.634;2023-12-28T04:21:15;99257.000000;;;2.500000;60.148438
77517;BME280;68414;53.946;27.634;2023-12-28T04:22:15;99252.257812;;;2.520000;59.833984
77517;BME280;68414;53.946;27.634;2023-12-28T04:23:15;99253.062500;;;2.530000;59.704102
77517;BME280;68414;53.946;27.634;2023-12-28T04:24:15;99253.625000;;;2.550000;59.793945
77517;BME280;68414;53.946;27.634;2023-12-28T04:25:15;99248.078125;;;2.560000;59.653320
77517;BME280;68414;53.946;27.634;2023-12-28T04:26:17;99251.046875;;;2.600000;59.658203
77517;BME280;68414;53.946;27.634;2023-12-28T04:27:15;99248.156250;;;2.610000;59.781250
77517;BME280;68414;53.946;27.634;2023-12-28T04:28:15;99247.515625;;;2.540000;59.628906
77517;BME280;68414;53.946;27.634;2023-12-28T04:29:15;99243.015625;;;2.550000;59.684570
77517;BME280;68414;53.946;27.634;2023-12-28T04:30:15;99248.796875;;;2.520000;59.515625
77517;BME280;68414;53.946;27.634;2023-12-28T04:31:15;99251.210938;;;2.530000;59.266602
77517;BME280;68414;53.946;27.634;2023-12-28T04:32:15;99246.226562;;;2.570000;59.544922
77517;BME280;68414;53.946;27.634;2023-12-28T04:33:16;99244.703125;;;2.440000;60.051758
77517;BME280;68414;53.946;27.634;2023-12-28T04:34:15;99246.546875;;;2.440000;59.810547
77517;BME280;68414;53.946;27.634;2023-12-28T04:35:15;99242.281250;;;2.430000;59.470703
77517;BME280;68414;53.946;27.634;2023-12-28T04:36:15;99246.812500;;;2.420000;60.168945
77517;BME280;68414;53.946;27.634;2023-12-28T04:37:15;99244.937500;;;2.430000;60.158203
77517;BME280;68414;53.946;27.634;2023-12-28T04:38:15;99244.218750;;;2.470000;59.870117
77517;BME280;68414;53.946;27.634;2023-12-28T04:39:15;99243.250000;;;2.530000;59.594727
77517;BME280;68414;53.946;27.634;2023-12-28T04:40:15;99243.500000;;;2.520000;59.340820
77517;BME280;68414;53.946;27.634;2023-12-28T04:41:15;99252.015625;;;2.540000;59.540039